createdAt,value
2023-02-11T00:03:53.386Z,101974.11
2023-02-11T00:08:22.209Z,101965.81
2023-02-11T00:12:51.001Z,101952.31
2023-02-11T00:17:10.321Z,101951.28
2023-02-11T00:21:02.939Z,101944.87
2023-02-11T00:24:51.724Z,101943.83
2023-02-11T00:29:00.663Z,101933.61
2023-02-11T00:32:49.513Z,101924.27
2023-02-11T00:36:39.002Z,101914.58
2023-02-11T00:40:48.282Z,101902.81
2023-02-11T00:44:50.036Z,101886.77
2023-02-11T00:49:19.193Z,101870.51
2023-02-11T00:53:28.587Z,101853.41
2023-02-11T00:57:18.300Z,101843.39
2023-02-11T01:01:07.543Z,101833.70
2023-02-11T01:04:49.667Z,101825.24
2023-02-11T01:09:08.303Z,101832.54
2023-02-11T01:13:37.200Z,101822.20
2023-02-11T01:17:42.870Z,101802.66
2023-02-11T01:21:32.129Z,101780.20
2023-02-11T01:25:44.743Z,101763.45
2023-02-11T01:29:53.981Z,101746.48
2023-02-11T01:34:22.914Z,101756.67
2023-02-11T01:38:12.078Z,101752.20
2023-02-11T01:42:00.887Z,101766.05
2023-02-11T01:45:49.249Z,101776.64
2023-02-11T01:49:38.781Z,101776.52
2023-02-11T01:53:45.948Z,101762.88
2023-02-11T01:57:45.584Z,101737.81
2023-02-11T02:01:54.549Z,101728.30
2023-02-11T02:06:00.622Z,101718.63
2023-02-11T02:09:50.259Z,101715.52
2023-02-11T02:13:50.949Z,101689.39
2023-02-11T02:18:25.890Z,101678.98
2023-02-11T02:22:56.678Z,101667.70
2023-02-11T02:27:07.348Z,101674.77
2023-02-11T02:31:22.248Z,101680.27
2023-02-11T02:35:56.429Z,101668.69
2023-02-11T02:40:25.403Z,101636.34
2023-02-11T02:44:14.525Z,101632.02
2023-02-11T02:48:43.557Z,101641.50
2023-02-11T02:52:30.324Z,101642.67
2023-02-11T02:56:35.315Z,101647.32
2023-02-11T03:00:26.299Z,101639.73
2023-02-11T03:04:44.350Z,101635.08
2023-02-11T03:08:58.090Z,101620.23
2023-02-11T03:13:05.631Z,101619.67
2023-02-11T03:16:57.323Z,101607.38
2023-02-11T03:20:45.150Z,101600.46
2023-02-11T03:25:23.034Z,101590.60
2023-02-11T03:29:39.834Z,101586.45
2023-02-11T03:33:54.858Z,101578.85
2023-02-11T03:38:16.101Z,101567.10
2023-02-11T03:42:09.311Z,101561.55
2023-02-11T03:46:01.890Z,101564.12
2023-02-11T03:49:44.389Z,101558.08
2023-02-11T03:53:33.431Z,101559.30
2023-02-11T03:57:43.273Z,101545.30
2023-02-11T04:01:52.091Z,101521.45
2023-02-11T04:06:01.120Z,101510.73
2023-02-11T04:10:17.532Z,101493.42
2023-02-11T04:14:06.726Z,101491.66
2023-02-11T04:18:15.756Z,101488.20
2023-02-11T04:22:44.568Z,101494.08
2023-02-11T04:26:33.474Z,101485.64
2023-02-11T04:31:02.683Z,101472.34
2023-02-11T04:34:51.873Z,101466.34
2023-02-11T04:38:53.771Z,101451.34
2023-02-11T04:43:03.352Z,101432.85
2023-02-11T04:47:12.606Z,101414.02
2023-02-11T04:51:41.777Z,101391.71
2023-02-11T04:56:10.632Z,101390.83
2023-02-11T04:59:59.939Z,101388.56
2023-02-11T05:03:48.724Z,101379.37
2023-02-11T05:07:38.279Z,101389.10
2023-02-11T05:11:20.069Z,101385.98
2023-02-11T05:15:49.412Z,101377.87
2023-02-11T05:19:58.711Z,101365.64
2023-02-11T05:24:07.968Z,101357.38
2023-02-11T05:27:57.148Z,101348.59
2023-02-11T05:31:40.530Z,101355.18
2023-02-11T05:35:57.169Z,101359.36
2023-02-11T05:40:26.117Z,101363.52
2023-02-11T05:44:35.263Z,101355.23
2023-02-11T05:48:24.303Z,101353.00
2023-02-11T05:52:13.452Z,101337.98
2023-02-11T05:56:23.006Z,101334.70
2023-02-11T06:00:32.480Z,101333.33
2023-02-11T06:04:36.883Z,101329.73
2023-02-11T06:09:04.278Z,101332.70
2023-02-11T06:13:06.506Z,101315.07
2023-02-11T06:16:58.274Z,101311.80
2023-02-11T06:21:07.630Z,101306.79
2023-02-11T06:25:16.880Z,101301.23
2023-02-11T06:29:26.058Z,101308.02
2023-02-11T06:33:35.377Z,101294.73
2023-02-11T06:37:44.706Z,101287.67
2023-02-11T06:42:13.730Z,101281.45
2023-02-11T06:46:42.864Z,101278.57
2023-02-11T06:50:32.017Z,101279.08
2023-02-11T06:54:26.543Z,101281.73
2023-02-11T06:58:55.352Z,101264.83
2023-02-11T07:02:45.428Z,101255.52
2023-02-11T07:06:34.592Z,101250.52
2023-02-11T07:10:43.748Z,101259.58
2023-02-11T07:14:33.279Z,101264.09
2023-02-11T07:18:42.132Z,101259.95
2023-02-11T07:22:51.223Z,101253.91
2023-02-11T07:27:00.325Z,101256.85
2023-02-11T07:30:50.367Z,101250.80
2023-02-11T07:34:41.402Z,101251.85
2023-02-11T07:38:30.845Z,101244.04
2023-02-11T07:42:40.158Z,101233.80
2023-02-11T07:47:00.396Z,101228.08
2023-02-11T07:51:09.766Z,101230.85
2023-02-11T07:54:59.905Z,101233.27
2023-02-11T07:59:28.684Z,101230.50
2023-02-11T08:03:57.840Z,101229.33
2023-02-11T08:07:46.780Z,101230.89
2023-02-11T08:11:37.452Z,101213.11
2023-02-11T08:16:06.504Z,101224.23
2023-02-11T08:19:55.579Z,101224.42
2023-02-11T08:23:44.407Z,101211.08
2023-02-11T08:27:53.543Z,101194.64
2023-02-11T08:32:22.305Z,101190.47
2023-02-11T08:36:24.105Z,101197.03
2023-02-11T08:40:53.009Z,101191.68
2023-02-11T08:45:21.749Z,101183.22
2023-02-11T08:49:30.787Z,101167.65
2023-02-11T08:53:40.035Z,101145.86
2023-02-11T08:57:44.164Z,101140.89
2023-02-11T09:01:33.380Z,101140.37
2023-02-11T09:05:22.533Z,101119.64
2023-02-11T09:09:12.836Z,101100.95
2023-02-11T09:13:21.680Z,101118.09
2023-02-11T09:17:30.689Z,101111.68
2023-02-11T09:22:07.717Z,101109.11
2023-02-11T09:26:16.789Z,101114.87
2023-02-11T09:30:25.757Z,101114.54
2023-02-11T09:34:34.593Z,101123.72
2023-02-11T09:38:23.618Z,101136.16
2023-02-11T09:42:43.165Z,101156.59
2023-02-11T09:46:52.581Z,101166.82
2023-02-11T09:51:01.753Z,101152.95
2023-02-11T09:55:19.336Z,101131.67
2023-02-11T09:59:11.543Z,101119.72
2023-02-11T10:03:49.325Z,101118.34
2023-02-11T10:08:45.680Z,101138.76
2023-02-11T10:13:12.820Z,101124.21
2023-02-11T10:19:24.915Z,101122.48
2023-02-11T10:22:24.539Z,101096.37
2023-02-11T10:31:15.020Z,101064.64
2023-02-11T10:35:26.663Z,101054.42
2023-02-11T10:39:16.453Z,101052.69
2023-02-11T10:42:44.032Z,101032.95
2023-02-11T10:46:44.904Z,101038.18
2023-02-11T10:50:40.612Z,101026.98
2023-02-11T10:54:23.715Z,101015.73
2023-02-11T10:58:29.295Z,101016.42
2023-02-11T11:02:40.147Z,101017.61
2023-02-11T11:07:11.006Z,101011.92
2023-02-11T11:11:06.771Z,101014.16
2023-02-11T11:15:14.387Z,101048.05
2023-02-11T11:19:02.653Z,101061.54
2023-02-11T11:23:30.069Z,101047.70
2023-02-11T11:27:21.822Z,101042.34
2023-02-11T11:31:12.343Z,101039.92
2023-02-11T11:35:22.265Z,101029.39
2023-02-11T11:40:05.003Z,101022.13
2023-02-11T11:44:18.838Z,101003.46
2023-02-11T11:51:03.904Z,100991.36
2023-02-11T11:54:50.858Z,100990.55
2023-02-11T12:06:58.625Z,100986.29
2023-02-11T12:15:09.519Z,100988.94
2023-02-11T12:18:49.441Z,100986.54
2023-02-11T12:22:40.206Z,100987.27
2023-02-11T12:37:26.466Z,100988.13
2023-02-11T12:42:06.849Z,100998.20
2023-02-11T12:50:43.007Z,100987.71
2023-02-11T12:54:33.194Z,100973.36
2023-02-11T13:12:38.052Z,100973.45
2023-02-11T13:18:06.721Z,100989.56
2023-02-11T13:39:01.720Z,100988.79
2023-02-11T13:42:52.722Z,100981.91
2023-02-11T13:46:48.084Z,100983.08
2023-02-11T13:50:55.688Z,100987.14
2023-02-11T13:55:29.042Z,100987.57
2023-02-11T13:59:29.250Z,100981.95
2023-02-11T14:04:10.110Z,100987.95
2023-02-11T14:08:08.490Z,100988.27
2023-02-11T14:13:01.995Z,100987.34
2023-02-11T14:18:44.316Z,100992.70
2023-02-11T14:22:02.077Z,100993.38
2023-02-11T14:25:50.023Z,100998.03
2023-02-11T14:29:51.441Z,101008.27
2023-02-11T14:33:33.106Z,101005.66
2023-02-11T14:38:01.784Z,101003.41
2023-02-11T14:42:07.776Z,101003.20
2023-02-11T14:45:55.279Z,101004.96
2023-02-11T14:50:10.846Z,101006.20
2023-02-11T14:53:58.292Z,101008.64
2023-02-11T14:57:47.063Z,101018.70
2023-02-11T15:02:09.563Z,101024.77
2023-02-11T15:05:57.581Z,101024.77
2023-02-11T15:09:43.993Z,101022.02
2023-02-11T15:13:53.083Z,101018.42
2023-02-11T15:17:42.842Z,101021.01
2023-02-11T15:21:30.808Z,101024.89
2023-02-11T15:25:39.265Z,101031.17
2023-02-11T15:29:26.698Z,101036.41
2023-02-11T15:33:04.353Z,101039.73
2023-02-11T15:37:08.529Z,101049.09
2023-02-11T15:41:16.397Z,101054.70
2023-02-11T15:45:11.094Z,101054.72
2023-02-11T15:49:16.357Z,101058.76
2023-02-11T15:52:57.296Z,101065.54
2023-02-11T15:56:44.325Z,101064.71
2023-02-11T16:00:31.781Z,101067.84
2023-02-11T16:04:19.306Z,101070.83
2023-02-11T16:08:37.140Z,101070.70
2023-02-11T16:12:32.201Z,101075.58
2023-02-11T16:16:30.546Z,101073.52
2023-02-11T16:20:38.196Z,101084.98
2023-02-11T16:24:27.576Z,101095.56
2023-02-11T16:28:15.168Z,101098.54
2023-02-11T16:32:02.865Z,101108.29
2023-02-11T16:35:50.734Z,101109.54
2023-02-11T16:39:38.539Z,101105.95
2023-02-11T16:43:17.623Z,101113.27
2023-02-11T16:47:05.510Z,101121.80
2023-02-11T16:50:53.671Z,101122.52
2023-02-11T16:54:40.022Z,101131.08
2023-02-11T16:58:27.402Z,101133.53
2023-02-11T17:02:07.595Z,101138.10
2023-02-11T17:05:56.067Z,101144.38
2023-02-11T17:09:42.589Z,101151.84
2023-02-11T17:13:30.089Z,101156.02
2023-02-11T17:17:13.129Z,101168.39
2023-02-11T17:21:00.943Z,101172.08
2023-02-11T17:24:48.504Z,101177.67
2023-02-11T17:29:16.587Z,101183.44
2023-02-11T17:32:51.311Z,101185.55
2023-02-11T17:41:39.517Z,101199.67
2023-02-11T17:45:15.350Z,101208.04
2023-02-11T17:49:18.468Z,101220.38
2023-02-11T17:54:40.760Z,101225.95
2023-02-11T17:56:58.464Z,101228.91
2023-02-11T18:01:05.704Z,101225.79
2023-02-11T18:04:45.202Z,101230.83
2023-02-11T18:08:32.802Z,101233.48
2023-02-11T18:12:20.578Z,101241.11
2023-02-11T18:16:16.209Z,101244.95
2023-02-11T18:19:53.890Z,101246.19
2023-02-11T18:23:41.529Z,101251.41
2023-02-11T18:27:30.066Z,101256.64
2023-02-11T18:31:17.835Z,101261.19
2023-02-11T18:35:06.110Z,101266.77
2023-02-11T18:39:40.463Z,101272.85
2023-02-11T18:42:39.552Z,101273.73
2023-02-11T18:46:20.443Z,101281.90
2023-02-11T18:50:21.510Z,101295.64
2023-02-11T18:54:32.772Z,101297.41
2023-02-11T18:58:04.683Z,101301.26
2023-02-11T19:01:37.833Z,101300.07
2023-02-11T19:05:15.537Z,101307.73
2023-02-11T19:09:05.487Z,101316.42
2023-02-11T19:12:44.578Z,101317.33
2023-02-11T19:16:51.163Z,101324.29
2023-02-11T19:20:32.541Z,101341.29
2023-02-11T19:24:40.602Z,101339.91
2023-02-11T19:28:14.058Z,101349.45
2023-02-11T19:32:09.506Z,101352.95
2023-02-11T19:35:57.001Z,101358.34
2023-02-11T19:39:44.387Z,101361.13
2023-02-11T19:44:07.814Z,101359.41
2023-02-11T19:51:03.905Z,101368.27
2023-02-11T19:53:01.882Z,101381.13
2023-02-11T19:57:59.449Z,101385.48
2023-02-11T20:04:58.784Z,101399.57
2023-02-11T20:08:50.661Z,101407.00
2023-02-11T20:12:36.795Z,101419.66
2023-02-11T20:16:13.702Z,101437.20
2023-02-11T20:20:01.240Z,101439.12
2023-02-11T20:23:45.982Z,101447.14
2023-02-11T20:27:24.248Z,101453.33
2023-02-11T20:31:37.326Z,101462.30
2023-02-11T20:37:12.227Z,101469.91
2023-02-11T20:40:14.071Z,101475.61
2023-02-11T21:01:42.826Z,101511.51
2023-02-11T21:03:44.790Z,101483.09
2023-02-11T21:05:49.994Z,101527.39
2023-02-11T21:10:34.459Z,101520.62
2023-02-11T21:10:48.878Z,101534.71
2023-02-11T21:13:35.873Z,101555.52
2023-02-11T21:18:03.043Z,101559.41
2023-02-11T21:21:24.706Z,101589.80
2023-02-11T21:25:12.578Z,101595.95
2023-02-11T21:29:20.805Z,101603.94
2023-02-11T21:33:08.874Z,101607.36
2023-02-11T21:36:58.266Z,101617.95
2023-02-11T21:40:45.143Z,101640.67
2023-02-11T21:44:32.629Z,101654.58
2023-02-11T21:48:24.247Z,101656.67
2023-02-11T21:52:12.532Z,101662.23
2023-02-11T21:55:59.383Z,101659.84
2023-02-11T21:59:32.312Z,101669.64
2023-02-11T22:03:38.927Z,101681.31
2023-02-11T22:07:27.798Z,101697.66
2023-02-11T22:11:23.497Z,101697.58
2023-02-11T22:15:02.218Z,101705.80
2023-02-11T22:18:50.048Z,101717.16
2023-02-11T22:22:26.596Z,101725.04
2023-02-11T22:26:04.878Z,101733.61
2023-02-11T22:29:52.724Z,101735.59
2023-02-11T22:33:40.149Z,101750.23
2023-02-11T22:37:07.138Z,101775.77
2023-02-11T22:40:56.594Z,101774.55
2023-02-11T22:44:44.097Z,101789.48
2023-02-11T22:48:16.521Z,101798.80
2023-02-11T22:52:04.317Z,101816.14
2023-02-11T22:55:53.356Z,101820.96
2023-02-11T22:59:43.722Z,101831.71
2023-02-11T23:03:33.090Z,101842.44
2023-02-11T23:07:16.449Z,101854.95
2023-02-11T23:10:48.604Z,101851.80
2023-02-11T23:14:26.137Z,101857.73
2023-02-11T23:18:13.893Z,101857.71
2023-02-11T23:22:11.703Z,101871.63
2023-02-11T23:25:59.436Z,101873.83
2023-02-11T23:29:37.124Z,101880.41
2023-02-11T23:33:18.263Z,101885.11
2023-02-11T23:37:05.706Z,101887.59
2023-02-11T23:40:48.221Z,101901.71
2023-02-11T23:44:35.704Z,101899.39
2023-02-11T23:48:11.559Z,101912.73
2023-02-11T23:52:38.924Z,101923.09
2023-02-11T23:56:00.547Z,101917.63
2023-02-11T23:59:38.975Z,101931.38
